Time;durP1;ratioP1;P1;durP2;ratioP2;P2;SDS_P1;SDS_P2;PMS_P1;PMS_P2;Temp;Humidity;BMP_temperature;BMP_pressure;BME280_temperature;BME280_humidity;BME280_pressure;Samples;Min_cycle;Max_cycle;Signal;HPM_P1;HPM_P2
2023/04/13 00:00:35;;;;;;;4.03;2.33;;;15.90;59.50;16.60;99033.00;;;;5025594;28;20184;-49
2023/04/13 00:03:01;;;;;;;3.83;2.17;;;15.80;59.50;16.50;99031.00;;;;5027182;28;21061;-49
2023/04/13 00:05:27;;;;;;;2.47;2.10;;;15.90;59.60;16.60;99030.00;;;;5035031;28;20266;-50
2023/04/13 00:07:53;;;;;;;2.50;2.07;;;15.80;59.60;16.50;99037.00;;;;5046654;28;20190;-52
2023/04/13 00:10:19;;;;;;;3.23;2.10;;;15.80;59.60;16.50;99038.00;;;;5030279;28;20175;-51
2023/04/13 00:12:46;;;;;;;2.47;1.97;;;15.80;59.60;16.60;99023.00;;;;5029019;28;20667;-51
2023/04/13 00:15:16;;;;;;;2.40;2.10;;;15.80;59.60;16.60;99019.00;;;;5029150;28;20626;-49
2023/04/13 00:17:42;;;;;;;3.63;2.10;;;15.80;59.60;16.60;99015.00;;;;5029663;28;20710;-50
2023/04/13 00:20:12;;;;;;;2.40;2.03;;;15.80;59.60;16.60;99014.00;;;;5027854;28;20167;-50
2023/04/13 00:22:41;;;;;;;3.90;2.23;;;15.70;59.60;16.60;99014.00;;;;5029454;28;20210;-51
2023/04/13 00:25:08;;;;;;;2.87;2.07;;;15.70;59.60;16.50;99011.00;;;;5029092;28;20668;-50
2023/04/13 00:27:34;;;;;;;2.27;1.90;;;15.70;59.60;16.50;99006.00;;;;5025263;28;20523;-50
2023/04/13 00:30:00;;;;;;;2.20;1.90;;;15.70;59.60;16.40;99006.00;;;;5025345;28;20179;-50
2023/04/13 00:32:26;;;;;;;3.00;2.10;;;15.70;59.60;16.40;99003.00;;;;5029261;28;20417;-51
2023/04/13 00:34:52;;;;;;;3.17;2.10;;;15.70;59.60;16.50;98996.00;;;;5028632;28;20203;-50
2023/04/13 00:37:19;;;;;;;2.27;1.90;;;15.70;59.60;16.50;98999.00;;;;5028224;28;20190;-49
2023/04/13 00:39:47;;;;;;;2.20;2.00;;;15.60;59.50;16.40;98988.00;;;;5029100;28;20175;-49
2023/04/13 00:42:13;;;;;;;2.60;2.20;;;15.60;59.50;16.40;98991.00;;;;5029111;28;20179;-50
2023/04/13 00:44:39;;;;;;;3.97;2.30;;;15.60;59.60;16.40;98987.00;;;;5028752;28;20253;-51
2023/04/13 00:47:05;;;;;;;2.33;1.90;;;15.60;59.60;16.40;98991.00;;;;5020991;28;20190;-50
2023/04/13 00:49:34;;;;;;;2.37;2.10;;;15.60;59.60;16.40;98984.00;;;;5027513;28;20224;-49
2023/04/13 00:52:01;;;;;;;2.43;1.70;;;15.60;59.50;16.40;99000.00;;;;5028810;28;20179;-50
2023/04/13 00:54:28;;;;;;;2.40;1.90;;;15.60;59.50;16.40;98948.00;;;;5026700;28;20186;-51
2023/04/13 00:56:54;;;;;;;2.43;1.80;;;15.60;59.50;16.40;98985.00;;;;5026240;28;20195;-50
2023/04/13 00:59:20;;;;;;;2.27;1.90;;;15.60;59.50;16.40;98985.00;;;;5032010;28;20174;-50
2023/04/13 01:01:49;;;;;;;1.90;1.70;;;15.60;59.60;16.40;98990.00;;;;5027653;28;20766;-49
2023/04/13 01:04:18;;;;;;;1.83;1.70;;;15.50;59.50;16.30;98983.00;;;;5026963;28;20186;-52
2023/04/13 01:07:06;;;;;;;2.17;1.80;;;15.50;59.50;16.30;98982.00;;;;5028655;28;20225;-51
2023/04/13 01:09:44;;;;;;;2.17;1.90;;;15.50;59.40;16.30;98989.00;;;;5026870;28;20189;-51
2023/04/13 01:12:37;;;;;;;1.70;1.60;;;15.50;59.40;16.30;98984.00;;;;5011806;28;20174;-50
2023/04/13 01:15:07;;;;;;;2.10;1.90;;;15.50;59.40;16.30;98971.00;;;;5023270;28;20310;-51
2023/04/13 01:17:33;;;;;;;3.30;1.90;;;15.50;59.40;16.30;98968.00;;;;5026601;28;20175;-50
2023/04/13 01:20:06;;;;;;;2.00;1.70;;;15.50;59.40;16.30;98976.00;;;;5026763;28;20167;-50
2023/04/13 01:22:32;;;;;;;2.47;1.90;;;15.50;59.40;16.20;98975.00;;;;5027515;28;20175;-49
2023/04/13 01:25:46;;;;;;;3.40;1.83;;;15.40;59.40;16.30;98967.00;;;;5027396;28;20221;-49
2023/04/13 01:28:15;;;;;;;2.50;1.97;;;15.40;59.30;16.20;98973.00;;;;5027852;28;20186;-49
2023/04/13 01:30:41;;;;;;;2.40;1.80;;;15.40;59.40;16.20;98968.00;;;;5027799;28;20186;-51
2023/04/13 01:33:10;;;;;;;1.70;1.60;;;15.40;59.90;16.20;98985.00;;;;5020818;28;20553;-50
2023/04/13 01:35:37;;;;;;;1.73;1.63;;;15.40;59.40;16.20;98982.00;;;;5024251;28;20208;-51
2023/04/13 01:38:03;;;;;;;1.80;1.70;;;15.40;59.40;16.20;98988.00;;;;5023835;28;20183;-51
2023/04/13 01:40:30;;;;;;;1.90;1.70;;;15.40;59.30;16.20;98979.00;;;;5028743;28;20174;-51
2023/04/13 01:42:56;;;;;;;1.50;1.40;;;15.40;59.30;16.20;98973.00;;;;5028487;28;20171;-50
2023/04/13 01:45:46;;;;;;;2.10;1.60;;;15.40;59.30;16.20;98981.00;;;;5028762;28;20206;-51
2023/04/13 01:48:12;;;;;;;1.70;1.60;;;15.40;59.60;16.20;98970.00;;;;5027307;28;20253;-50
2023/04/13 01:50:44;;;;;;;1.57;1.47;;;15.40;59.70;16.20;98977.00;;;;5031782;28;20182;-50
2023/04/13 01:53:21;;;;;;;2.03;1.70;;;15.40;59.80;16.10;98982.00;;;;5026973;28;20171;-49
2023/04/13 01:55:48;;;;;;;1.60;1.50;;;15.30;59.70;16.10;98973.00;;;;5028797;28;20202;-52
2023/04/13 01:58:33;;;;;;;1.60;1.50;;;15.30;59.60;16.10;98977.00;;;;5029762;28;20602;-50
2023/04/13 02:00:59;;;;;;;2.77;1.63;;;15.30;59.60;16.10;98981.00;;;;5028774;28;20175;-50
2023/04/13 02:03:25;;;;;;;2.83;1.63;;;15.30;59.60;16.10;98988.00;;;;5032438;28;20520;-50
2023/04/13 02:05:51;;;;;;;2.00;1.70;;;15.30;59.60;16.10;98909.00;;;;5036461;28;20191;-50
2023/04/13 02:08:17;;;;;;;2.00;1.70;;;15.30;59.50;16.10;98990.00;;;;5029464;28;20196;-50
2023/04/13 02:10:43;;;;;;;1.67;1.43;;;15.30;60.30;16.10;98979.00;;;;5028445;28;20182;-50
2023/04/13 02:13:09;;;;;;;1.70;1.60;;;15.30;59.50;16.00;98989.00;;;;5028204;28;20167;-49
2023/04/13 02:15:38;;;;;;;1.70;1.60;;;15.20;59.40;16.00;98984.00;;;;5028139;28;20205;-49
2023/04/13 02:18:04;;;;;;;1.73;1.60;;;15.30;59.40;16.00;98977.00;;;;5028383;28;20221;-50
2023/04/13 02:20:43;;;;;;;1.57;1.47;;;15.20;59.40;15.90;98981.00;;;;5027208;28;20183;-50
2023/04/13 02:23:10;;;;;;;1.40;1.30;;;15.20;59.40;15.90;98988.00;;;;5027800;28;20237;-51
2023/04/13 02:25:36;;;;;;;1.77;1.67;;;15.30;59.40;15.90;98975.00;;;;5030715;28;20668;-51
2023/04/13 02:28:02;;;;;;;1.80;1.60;;;15.20;59.30;16.00;98985.00;;;;5032301;28;20194;-50
2023/04/13 02:30:28;;;;;;;3.33;1.50;;;15.20;59.30;16.00;98984.00;;;;5031992;28;20179;-51
2023/04/13 02:32:54;;;;;;;1.50;1.40;;;15.30;59.40;16.00;98978.00;;;;5031988;28;20182;-52
2023/04/13 02:35:20;;;;;;;1.57;1.47;;;15.30;59.40;16.10;98982.00;;;;5031995;28;20717;-51
2023/04/13 02:37:47;;;;;;;2.30;1.60;;;15.30;59.40;16.10;98976.00;;;;5032420;28;20257;-53
2023/04/13 02:40:13;;;;;;;1.40;1.30;;;15.40;59.30;16.10;98976.00;;;;5032287;28;20194;-51
2023/04/13 02:42:39;;;;;;;1.53;1.43;;;15.40;59.30;16.10;98985.00;;;;5032304;28;20513;-49
2023/04/13 02:45:06;;;;;;;1.60;1.50;;;15.30;59.30;16.20;98983.00;;;;5031457;28;20253;-50
2023/04/13 02:47:33;;;;;;;2.33;1.40;;;15.40;59.40;16.20;98984.00;;;;5031943;28;20186;-50
2023/04/13 02:50:00;;;;;;;1.73;1.63;;;15.30;59.40;16.20;98970.00;;;;5030312;28;20203;-50
2023/04/13 02:52:26;;;;;;;1.57;1.47;;;15.40;59.50;16.20;98973.00;;;;5031437;28;20179;-50
2023/04/13 02:54:53;;;;;;;1.57;1.47;;;15.40;59.60;16.20;98973.00;;;;5023313;28;20222;-50
2023/04/13 02:57:23;;;;;;;1.40;1.30;;;15.40;59.60;16.20;98978.00;;;;5031461;28;20193;-50
2023/04/13 02:59:49;;;;;;;1.60;1.50;;;15.40;59.60;16.20;98972.00;;;;5031644;28;20642;-50
2023/04/13 03:02:14;;;;;;;1.33;1.23;;;15.30;59.60;16.20;98979.00;;;;5031447;28;20199;-50
2023/04/13 03:04:40;;;;;;;1.40;1.30;;;15.40;59.70;16.20;98992.00;;;;5029958;28;20312;-50
2023/04/13 03:07:09;;;;;;;1.40;1.30;;;15.40;59.80;16.20;98982.00;;;;5031358;28;20729;-49
2023/04/13 03:09:38;;;;;;;1.37;1.27;;;15.40;59.80;16.20;98991.00;;;;5031265;28;20175;-51
2023/04/13 03:12:06;;;;;;;1.60;1.50;;;15.40;59.70;16.20;98989.00;;;;5031426;28;20206;-50
2023/04/13 03:14:32;;;;;;;1.43;1.33;;;15.40;59.70;16.20;98985.00;;;;5030857;28;20199;-50
2023/04/13 03:16:58;;;;;;;1.67;1.57;;;15.40;59.80;16.20;98991.00;;;;5031181;28;20198;-49
2023/04/13 03:19:27;;;;;;;2.50;1.40;;;15.40;59.80;16.20;98998.00;;;;5031296;28;20262;-51
2023/04/13 03:21:53;;;;;;;1.53;1.43;;;15.30;59.80;16.30;98991.00;;;;5031303;28;20175;-50
2023/04/13 03:24:19;;;;;;;1.03;1.00;;;15.40;59.90;16.30;98987.00;;;;5030956;28;20199;-52
2023/04/13 03:26:45;;;;;;;1.70;1.50;;;15.40;59.90;16.30;98995.00;;;;5030945;28;20700;-50
2023/04/13 03:29:11;;;;;;;1.37;1.27;;;15.40;59.90;16.30;99000.00;;;;5031426;28;20167;-51
2023/04/13 03:31:36;;;;;;;2.13;1.47;;;15.40;60.00;16.30;98995.00;;;;5031348;28;20588;-50
2023/04/13 03:34:02;;;;;;;7.80;1.70;;;15.40;60.40;16.20;98983.00;;;;5031187;28;20171;-50
2023/04/13 03:36:28;;;;;;;2.70;1.47;;;15.40;60.30;16.30;98994.00;;;;5029681;28;20241;-51
2023/04/13 03:38:54;;;;;;;1.80;1.60;;;15.40;60.20;16.30;98992.00;;;;5031451;28;20684;-51
2023/04/13 03:41:21;;;;;;;1.40;1.30;;;15.40;60.30;16.30;98993.00;;;;5031252;28;20487;-51
2023/04/13 03:43:46;;;;;;;6.87;1.50;;;15.40;60.40;16.30;98919.00;;;;5030821;28;20175;-51
2023/04/13 03:46:12;;;;;;;2.87;1.50;;;15.40;60.40;16.30;99011.00;;;;5031829;28;20198;-51
2023/04/13 03:48:40;;;;;;;3.90;1.37;;;15.40;61.10;16.20;98999.00;;;;5040475;28;20215;-52
2023/04/13 03:51:06;;;;;;;3.23;1.40;;;15.40;60.20;16.20;99004.00;;;;5040023;28;20194;-50
2023/04/13 03:53:34;;;;;;;3.37;1.40;;;15.40;60.10;16.20;99006.00;;;;5034860;28;20555;-49
2023/04/13 03:56:00;;;;;;;1.23;1.10;;;15.40;60.10;16.20;99007.00;;;;5032604;28;20203;-50
2023/04/13 03:58:26;;;;;;;1.87;1.40;;;15.30;59.90;16.20;99017.00;;;;5033783;28;20171;-51
2023/04/13 04:00:52;;;;;;;1.50;1.40;;;15.30;59.90;16.20;98929.00;;;;5032256;28;20666;-51
2023/04/13 04:03:17;;;;;;;2.37;1.30;;;15.30;59.80;16.20;99001.00;;;;5043835;28;20182;-51
2023/04/13 04:05:43;;;;;;;1.57;1.43;;;15.40;59.80;16.20;99008.00;;;;5031737;28;20195;-51
2023/04/13 04:08:09;;;;;;;2.03;1.20;;;15.30;59.80;16.20;99007.00;;;;5023621;28;20664;-50
2023/04/13 04:10:35;;;;;;;2.23;1.30;;;15.30;59.70;16.20;99004.00;;;;5031655;28;20182;-51
2023/04/13 04:13:00;;;;;;;1.70;1.17;;;15.30;59.70;16.20;99010.00;;;;5031404;28;20266;-50
2023/04/13 04:15:26;;;;;;;2.27;1.30;;;15.30;59.60;16.20;99018.00;;;;5031497;28;20211;-50
2023/04/13 04:17:52;;;;;;;1.40;1.30;;;15.30;59.60;16.10;99019.00;;;;5030181;28;20187;-51
2023/04/13 04:20:18;;;;;;;2.07;1.30;;;15.30;59.50;16.10;99023.00;;;;5031672;28;20614;-51
2023/04/13 04:22:46;;;;;;;2.47;1.27;;;15.20;59.30;16.10;99022.00;;;;5023843;28;20605;-50
2023/04/13 04:25:20;;;;;;;4.77;1.33;;;15.30;59.40;16.10;99037.00;;;;5017883;28;20214;-51
2023/04/13 04:27:56;;;;;;;2.70;1.40;;;15.30;59.50;16.10;99040.00;;;;5030663;28;20183;-51
2023/04/13 04:30:23;;;;;;;1.30;1.20;;;15.20;59.50;16.10;99037.00;;;;5030829;28;20589;-51
2023/04/13 04:32:51;;;;;;;1.50;1.20;;;15.20;59.50;16.10;99034.00;;;;5030470;28;20186;-51
2023/04/13 04:35:19;;;;;;;3.77;1.43;;;15.30;59.60;16.10;99047.00;;;;5030585;28;20217;-51
2023/04/13 04:37:48;;;;;;;4.00;1.40;;;15.20;59.40;16.10;99052.00;;;;5029215;28;20659;-50
2023/04/13 04:40:14;;;;;;;4.40;1.47;;;15.20;59.40;16.10;99070.00;;;;5030657;28;20198;-50
2023/04/13 04:42:41;;;;;;;8.33;1.63;;;15.20;59.50;16.00;99059.00;;;;5030486;28;20546;-50
2023/04/13 04:45:08;;;;;;;6.40;2.00;;;15.20;59.60;16.00;99069.00;;;;5029921;28;20195;-50
2023/04/13 04:47:40;;;;;;;4.10;1.50;;;15.20;59.60;16.00;99074.00;;;;5021418;28;20256;-50
2023/04/13 04:50:13;;;;;;;4.47;1.50;;;15.20;59.60;16.00;99071.00;;;;5030855;28;20217;-50
2023/04/13 04:52:39;;;;;;;3.83;1.47;;;15.20;59.70;16.00;99080.00;;;;5030162;28;20259;-49
2023/04/13 04:55:05;;;;;;;5.67;1.60;;;15.20;59.70;16.00;99092.00;;;;5029989;28;20297;-51
2023/04/13 04:57:35;;;;;;;1.77;1.10;;;15.10;59.60;16.00;99088.00;;;;5029686;28;20179;-50
2023/04/13 05:00:01;;;;;;;3.07;1.47;;;15.10;59.60;16.00;99100.00;;;;5030323;28;20195;-50
2023/04/13 05:02:27;;;;;;;1.57;1.37;;;15.10;59.60;16.00;99105.00;;;;5033187;28;20175;-50
2023/04/13 05:04:54;;;;;;;5.83;1.50;;;15.10;59.60;16.00;99107.00;;;;5027111;28;20221;-50
2023/04/13 05:07:20;;;;;;;5.17;1.70;;;15.10;59.60;16.00;99112.00;;;;5034462;28;20767;-51
2023/04/13 05:09:46;;;;;;;4.07;1.30;;;15.10;59.70;16.00;99122.00;;;;5031786;28;20186;-50
2023/04/13 05:12:12;;;;;;;3.73;1.60;;;15.10;59.60;16.00;99119.00;;;;5028369;28;20589;-50
2023/04/13 05:14:38;;;;;;;5.50;1.60;;;15.10;59.60;16.00;99130.00;;;;5029506;28;20203;-50
2023/04/13 05:17:04;;;;;;;3.03;1.30;;;15.10;59.60;16.00;99132.00;;;;5029025;28;20650;-50
2023/04/13 05:19:30;;;;;;;3.03;1.17;;;15.10;59.70;15.70;99136.00;;;;5029676;28;20528;-50
2023/04/13 05:21:56;;;;;;;1.97;1.20;;;15.10;59.70;16.00;99138.00;;;;5029187;28;20240;-51
2023/04/13 05:24:21;;;;;;;4.83;1.33;;;15.10;59.60;15.90;99137.00;;;;5029338;28;20210;-53
2023/04/13 05:26:47;;;;;;;1.20;1.10;;;15.10;59.60;15.90;99147.00;;;;5029438;28;20203;-50
2023/04/13 05:29:13;;;;;;;1.63;1.27;;;15.10;59.60;15.90;99146.00;;;;5028537;28;20171;-50
2023/04/13 05:31:39;;;;;;;2.67;1.30;;;15.10;59.70;15.90;99149.00;;;;5030803;28;20179;-51
2023/04/13 05:34:04;;;;;;;2.57;1.40;;;15.10;59.70;15.90;99158.00;;;;5030918;28;20182;-51
2023/04/13 05:36:32;;;;;;;3.97;1.60;;;15.10;59.70;15.90;99161.00;;;;5028102;28;20237;-50
2023/04/13 05:38:58;;;;;;;1.10;1.00;;;15.10;59.80;15.90;99171.00;;;;5029759;28;20186;-51
2023/04/13 05:41:24;;;;;;;1.37;1.23;;;15.10;59.70;15.90;99168.00;;;;5029359;28;20183;-51
2023/04/13 05:43:50;;;;;;;1.57;1.20;;;15.00;59.60;15.90;99170.00;;;;5027756;28;20182;-51
2023/04/13 05:46:16;;;;;;;1.53;1.27;;;15.10;59.80;15.90;99189.00;;;;5031254;28;20203;-51
2023/04/13 05:48:44;;;;;;;1.77;1.20;;;15.00;59.70;15.90;99198.00;;;;5036523;28;20693;-50
2023/04/13 05:51:11;;;;;;;1.70;1.27;;;15.00;59.80;15.90;99206.00;;;;5029183;28;20179;-51
2023/04/13 05:53:37;;;;;;;2.10;1.13;;;15.00;59.80;15.80;99204.00;;;;5028940;28;20274;-52
2023/04/13 05:56:04;;;;;;;1.37;1.20;;;15.00;59.80;15.80;99205.00;;;;5028989;28;20214;-52
2023/04/13 05:58:30;;;;;;;1.23;1.00;;;15.00;59.80;15.80;99212.00;;;;5021311;28;20202;-51
2023/04/13 06:00:56;;;;;;;1.20;1.00;;;15.00;59.80;15.80;99221.00;;;;5035119;28;20194;-51
2023/04/13 06:03:21;;;;;;;2.43;1.33;;;15.00;59.80;15.80;99218.00;;;;5039976;28;20175;-50
2023/04/13 06:05:47;;;;;;;1.77;1.00;;;15.00;59.80;15.80;99233.00;;;;5023409;28;20203;-51
2023/04/13 06:08:13;;;;;;;1.57;1.10;;;15.00;59.90;15.80;99231.00;;;;5026763;28;20194;-51
2023/04/13 06:10:40;;;;;;;1.20;1.10;;;15.00;60.60;15.80;99238.00;;;;5028392;28;20191;-51
2023/04/13 06:13:07;;;;;;;2.77;1.10;;;14.90;59.70;15.80;99240.00;;;;5028834;28;20183;-51
2023/04/13 06:15:33;;;;;;;1.30;1.20;;;14.90;59.80;15.80;99256.00;;;;5028717;28;20214;-51
2023/04/13 06:17:58;;;;;;;1.40;1.30;;;14.90;59.80;15.80;99254.00;;;;5030005;28;20220;-51
2023/04/13 06:20:24;;;;;;;0.90;0.90;;;14.90;59.80;15.80;99257.00;;;;5029639;28;20179;-51
2023/04/13 06:22:50;;;;;;;1.20;1.10;;;14.90;59.80;15.80;99267.00;;;;5028338;28;20653;-50
2023/04/13 06:25:16;;;;;;;2.53;1.20;;;14.90;59.80;15.80;99275.00;;;;5028886;28;20202;-52
2023/04/13 06:27:42;;;;;;;2.73;1.00;;;14.90;59.90;15.80;99281.00;;;;5029083;28;20183;-50
2023/04/13 06:30:09;;;;;;;1.20;1.10;;;14.90;59.80;15.80;99274.00;;;;5027798;28;20646;-52
2023/04/13 06:32:35;;;;;;;1.13;1.03;;;14.90;59.80;15.80;99284.00;;;;5029254;28;20183;-51
2023/04/13 06:35:02;;;;;;;1.97;1.20;;;15.00;59.90;15.80;99281.00;;;;5028876;28;20572;-51
2023/04/13 06:37:29;;;;;;;1.73;1.20;;;15.00;59.90;15.90;99279.00;;;;5027004;28;20678;-51
2023/04/13 06:39:56;;;;;;;1.10;1.00;;;15.00;59.90;15.90;99285.00;;;;5029474;28;20179;-51
2023/04/13 06:42:22;;;;;;;4.10;1.13;;;15.10;59.90;15.90;99277.00;;;;5028862;28;20244;-51
2023/04/13 06:44:48;;;;;;;0.80;0.80;;;15.10;59.90;15.90;99275.00;;;;5028729;28;20191;-50
2023/04/13 06:47:14;;;;;;;1.33;1.13;;;15.10;59.80;16.00;99287.00;;;;5028614;28;20175;-51
2023/04/13 06:49:40;;;;;;;1.00;0.90;;;15.20;59.90;16.00;99284.00;;;;5026709;28;20232;-52
2023/04/13 06:52:06;;;;;;;0.93;0.90;;;15.20;59.90;15.70;99298.00;;;;5028229;28;20540;-51
2023/04/13 06:54:31;;;;;;;4.97;1.10;;;15.20;59.90;16.00;99290.00;;;;5027586;28;20207;-50
2023/04/13 06:56:57;;;;;;;2.43;1.33;;;15.20;60.50;16.00;99297.00;;;;5028330;28;20662;-50
2023/04/13 06:59:23;;;;;;;4.60;1.40;;;15.20;60.40;16.00;99297.00;;;;5028177;28;20183;-51
2023/04/13 07:01:49;;;;;;;1.47;1.07;;;15.20;60.40;16.10;99304.00;;;;5027558;28;20182;-51
2023/04/13 07:04:15;;;;;;;1.90;1.17;;;15.20;60.40;16.10;99307.00;;;;5024637;28;20574;-50
2023/04/13 07:06:41;;;;;;;1.67;1.47;;;15.30;60.50;16.10;99309.00;;;;5021107;28;20198;-51
2023/04/13 07:09:07;;;;;;;1.77;1.40;;;15.30;60.80;16.20;99291.00;;;;5028543;28;20259;-50
2023/04/13 07:11:32;;;;;;;1.60;1.47;;;15.40;60.90;16.20;99300.00;;;;5030992;28;20175;-51
2023/04/13 07:13:58;;;;;;;2.77;1.33;;;15.50;60.90;16.30;99309.00;;;;5032731;28;20183;-50
2023/04/13 07:16:24;;;;;;;2.93;1.20;;;15.60;60.60;16.30;99299.00;;;;5032216;28;20276;-50
2023/04/13 07:18:50;;;;;;;3.27;1.27;;;15.70;60.50;16.40;99318.00;;;;5032425;28;20183;-51
2023/04/13 07:21:15;;;;;;;3.57;1.20;;;15.70;60.50;16.40;99324.00;;;;5032394;28;20242;-50
2023/04/13 07:23:41;;;;;;;1.50;1.23;;;15.70;60.30;16.50;99321.00;;;;5030690;28;20651;-51
2023/04/13 07:26:14;;;;;;;1.43;1.33;;;15.80;60.30;16.50;99318.00;;;;5023478;28;20215;-51
2023/04/13 07:28:40;;;;;;;1.40;1.20;;;15.80;60.20;16.50;99325.00;;;;5032440;28;20266;-51
2023/04/13 07:31:06;;;;;;;1.90;1.13;;;15.80;60.10;16.50;99328.00;;;;5032220;28;20622;-50
2023/04/13 07:33:32;;;;;;;2.43;1.20;;;15.80;60.10;16.60;99325.00;;;;5031484;28;20236;-51
2023/04/13 07:35:57;;;;;;;1.30;1.10;;;15.90;60.10;16.60;99323.00;;;;5030098;28;20226;-51
2023/04/13 07:38:23;;;;;;;1.30;1.20;;;15.90;60.10;16.60;99327.00;;;;5031306;28;20183;-51
2023/04/13 07:40:49;;;;;;;1.20;1.13;;;15.90;60.10;16.60;99325.00;;;;5032097;28;20178;-50
2023/04/13 07:43:15;;;;;;;1.57;1.20;;;15.90;60.10;16.60;99329.00;;;;5031576;28;20179;-50
2023/04/13 07:45:41;;;;;;;1.73;1.30;;;15.90;60.00;16.60;99338.00;;;;5031795;28;20614;-50
2023/04/13 07:48:07;;;;;;;2.87;1.23;;;15.90;60.10;16.70;99349.00;;;;5042452;28;20228;-49
2023/04/13 07:50:39;;;;;;;1.17;1.10;;;15.90;60.10;16.70;99348.00;;;;5044352;28;20666;-50
2023/04/13 07:53:04;;;;;;;1.80;1.10;;;15.90;60.10;16.70;99352.00;;;;5029970;28;20641;-50
2023/04/13 07:55:30;;;;;;;4.30;1.60;;;15.90;60.50;16.70;99361.00;;;;5033628;28;20210;-52
2023/04/13 07:57:58;;;;;;;5.07;1.40;;;16.00;61.10;16.80;99362.00;;;;5033706;28;20171;-51
2023/04/13 08:00:24;;;;;;;4.27;1.60;;;16.00;60.50;16.80;99359.00;;;;5032640;28;20672;-52
2023/04/13 08:02:50;;;;;;;2.47;1.50;;;16.20;60.40;16.90;99365.00;;;;5036310;28;20195;-51
2023/04/13 08:05:16;;;;;;;6.20;1.10;;;16.30;60.10;16.90;99373.00;;;;5044896;28;20290;-51
2023/04/13 08:07:45;;;;;;;5.17;1.60;;;16.30;60.00;17.00;99367.00;;;;5032356;28;20183;-51
2023/04/13 08:10:11;;;;;;;2.47;1.50;;;16.50;60.00;17.10;99375.00;;;;5031839;28;20183;-50
2023/04/13 08:12:36;;;;;;;5.37;1.43;;;16.60;60.10;17.10;99376.00;;;;5031900;28;20199;-51
2023/04/13 08:15:02;;;;;;;7.77;2.00;;;16.60;60.00;17.10;99374.00;;;;5031415;28;20211;-51
2023/04/13 08:17:28;;;;;;;7.17;1.97;;;16.60;60.30;17.30;99370.00;;;;5030669;28;20179;-51
2023/04/13 08:19:54;;;;;;;8.53;2.23;;;16.70;60.50;17.30;99373.00;;;;5031658;28;20183;-51
2023/04/13 08:22:20;;;;;;;4.97;1.77;;;16.80;60.90;17.40;99383.00;;;;5030893;28;20178;-50
2023/04/13 08:24:45;;;;;;;10.77;2.40;;;16.80;61.20;17.40;99394.00;;;;5029173;28;20182;-52
2023/04/13 08:27:11;;;;;;;8.83;2.40;;;16.80;61.30;17.50;99388.00;;;;5031402;28;20194;-52
2023/04/13 08:29:37;;;;;;;7.83;1.90;;;16.90;61.60;17.50;99392.00;;;;5031330;28;20233;-51
2023/04/13 08:32:02;;;;;;;8.80;1.80;;;17.00;61.80;17.50;99401.00;;;;5031117;28;20186;-52
2023/04/13 08:34:28;;;;;;;5.90;1.90;;;17.00;61.40;17.60;99395.00;;;;5031264;28;20180;-51
2023/04/13 08:36:56;;;;;;;6.23;2.10;;;17.00;61.40;17.60;99399.00;;;;5031054;28;20303;-51
2023/04/13 08:39:22;;;;;;;5.97;1.97;;;17.10;61.50;17.70;99406.00;;;;5031538;28;20520;-50
2023/04/13 08:41:48;;;;;;;6.47;1.70;;;17.20;61.50;17.70;99405.00;;;;5031954;28;20185;-50
2023/04/13 08:44:14;;;;;;;6.93;1.90;;;17.20;61.50;17.80;99423.00;;;;5031028;28;20560;-53
2023/04/13 08:46:43;;;;;;;4.67;1.80;;;17.20;61.60;17.80;99422.00;;;;5031161;28;20218;-51
2023/04/13 08:49:10;;;;;;;5.50;1.70;;;17.20;61.60;17.80;99424.00;;;;5030806;28;20179;-51
2023/04/13 08:51:36;;;;;;;2.33;1.50;;;17.20;61.60;17.80;99433.00;;;;5031041;28;20171;-51
2023/04/13 08:54:01;;;;;;;5.10;1.50;;;17.10;61.60;17.80;99431.00;;;;5029682;28;20711;-50
2023/04/13 08:56:27;;;;;;;5.17;1.90;;;17.10;61.60;17.80;99439.00;;;;5030645;28;20567;-51
2023/04/13 08:58:57;;;;;;;6.20;1.70;;;17.10;61.70;17.80;99438.00;;;;5029694;28;20183;-51
2023/04/13 09:01:23;;;;;;;3.73;1.70;;;17.10;62.00;17.80;99438.00;;;;5029551;28;20182;-52
2023/04/13 09:04:09;;;;;;;8.20;1.70;;;17.10;61.80;17.90;99452.00;;;;5030581;28;20175;-51
2023/04/13 09:06:40;;;;;;;4.37;1.60;;;17.20;61.80;17.90;99452.00;;;;5029509;28;20552;-52
2023/04/13 09:09:09;;;;;;;4.53;1.90;;;17.20;61.50;17.90;99445.00;;;;5030827;28;20178;-51
2023/04/13 09:11:35;;;;;;;6.83;1.60;;;17.30;61.50;17.90;99455.00;;;;5031949;28;20175;-51
2023/04/13 09:14:01;;;;;;;3.80;1.60;;;17.30;61.90;18.00;99455.00;;;;5028266;28;20249;-52
2023/04/13 09:16:27;;;;;;;4.10;1.80;;;17.40;62.20;18.00;99453.00;;;;5036050;28;20211;-50
2023/04/13 09:18:54;;;;;;;3.00;1.90;;;17.40;62.30;18.10;99461.00;;;;5028109;28;20193;-51
2023/04/13 09:21:34;;;;;;;3.63;1.67;;;17.50;62.80;18.10;99458.00;;;;5028698;28;20183;-51
2023/04/13 09:24:00;;;;;;;5.17;1.60;;;17.40;62.60;18.10;99467.00;;;;5030828;28;20185;-53
2023/04/13 09:26:26;;;;;;;2.53;1.53;;;17.50;62.70;18.10;99467.00;;;;5030496;28;20233;-51
2023/04/13 09:28:55;;;;;;;2.20;1.50;;;17.50;63.00;18.10;99472.00;;;;5030611;28;20267;-50
2023/04/13 09:31:21;;;;;;;4.23;1.43;;;17.50;62.90;18.10;99474.00;;;;5029367;28;20712;-50
2023/04/13 09:33:49;;;;;;;3.20;1.40;;;17.50;62.80;18.20;99486.00;;;;5021155;28;20196;-52
2023/04/13 09:36:18;;;;;;;3.27;1.70;;;17.50;62.60;18.20;99489.00;;;;5028462;28;20298;-52
2023/04/13 09:38:49;;;;;;;2.77;1.70;;;17.50;63.10;18.20;99489.00;;;;5029949;28;20265;-51
2023/04/13 09:41:15;;;;;;;4.97;1.70;;;17.60;63.20;18.00;99500.00;;;;5029778;28;20184;-53
2023/04/13 09:43:40;;;;;;;7.70;1.70;;;17.60;63.20;18.20;99495.00;;;;5030034;28;20233;-50
2023/04/13 09:46:12;;;;;;;3.13;1.50;;;17.50;63.10;18.20;99500.00;;;;5029826;28;20710;-51
2023/04/13 09:48:39;;;;;;;2.93;1.70;;;17.50;63.20;18.20;99499.00;;;;5028587;28;20177;-51
2023/04/13 09:51:06;;;;;;;3.43;1.50;;;17.50;63.20;18.20;99500.00;;;;5035548;28;20193;-52
2023/04/13 09:53:43;;;;;;;5.00;1.50;;;17.50;63.30;18.30;99499.00;;;;5038301;28;20203;-51
2023/04/13 09:56:09;;;;;;;2.53;1.47;;;17.60;63.50;18.30;99503.00;;;;5031410;28;20755;-50
2023/04/13 09:58:43;;;;;;;3.07;1.33;;;17.60;63.30;18.30;99501.00;;;;5030956;28;20182;-51
2023/04/13 10:01:09;;;;;;;3.80;1.70;;;17.60;63.30;18.30;99484.00;;;;5031261;28;20181;-51
2023/04/13 10:03:36;;;;;;;2.10;1.37;;;17.60;63.20;18.30;99498.00;;;;5030682;28;20667;-51
2023/04/13 10:06:06;;;;;;;2.30;1.33;;;17.60;63.20;18.30;99494.00;;;;5043696;28;20665;-50
2023/04/13 10:08:37;;;;;;;2.63;1.50;;;17.60;63.20;18.30;99488.00;;;;5035493;28;20185;-52
2023/04/13 10:11:03;;;;;;;4.23;1.50;;;17.60;63.30;18.30;99490.00;;;;5031125;28;20238;-50
2023/04/13 10:13:53;;;;;;;2.37;1.43;;;17.60;63.40;18.40;99485.00;;;;5029960;28;20261;-52
2023/04/13 10:16:52;;;;;;;1.70;1.40;;;17.60;63.30;18.40;99485.00;;;;5028471;28;20243;-51
2023/04/13 10:19:23;;;;;;;2.30;1.50;;;17.60;63.30;18.30;99497.00;;;;5027295;28;20233;-51
2023/04/13 10:21:50;;;;;;;3.90;1.50;;;17.60;64.40;18.40;99490.00;;;;5028095;28;20205;-52
2023/04/13 10:24:16;;;;;;;4.00;1.63;;;17.60;64.20;18.30;99491.00;;;;5028022;28;20656;-52
2023/04/13 10:26:44;;;;;;;3.80;1.50;;;17.70;64.30;18.30;99495.00;;;;5022527;28;20211;-53
2023/04/13 10:29:12;;;;;;;2.50;1.63;;;17.60;64.10;18.40;99501.00;;;;5029077;28;20175;-53
2023/04/13 10:31:40;;;;;;;2.77;1.80;;;17.60;64.40;18.40;99504.00;;;;5028025;28;20669;-52
2023/04/13 10:34:06;;;;;;;3.50;1.70;;;17.70;64.30;18.40;99498.00;;;;5029486;28;20572;-52
2023/04/13 10:36:41;;;;;;;5.53;2.10;;;17.60;64.10;18.40;99506.00;;;;5027686;28;20211;-51
2023/04/13 10:39:08;;;;;;;2.20;1.53;;;17.60;63.90;18.40;99511.00;;;;5029165;28;20165;-51
2023/04/13 10:41:35;;;;;;;5.83;1.50;;;17.70;63.80;18.40;99517.00;;;;5028588;28;20171;-52
2023/04/13 10:44:05;;;;;;;3.13;1.90;;;17.60;63.80;18.40;99522.00;;;;5027396;28;20171;-52
2023/04/13 10:46:32;;;;;;;5.67;2.17;;;17.70;63.70;18.40;99519.00;;;;5030859;28;20677;-52
2023/04/13 10:48:59;;;;;;;4.23;1.90;;;17.70;63.60;18.40;99519.00;;;;5033338;28;20179;-51
2023/04/13 10:51:45;;;;;;;3.67;1.70;;;17.60;63.30;18.40;99525.00;;;;5032796;28;21846;-52
2023/04/13 10:54:12;;;;;;;4.23;1.93;;;17.70;63.40;18.40;99513.00;;;;5032819;28;20189;-53
2023/04/13 10:56:39;;;;;;;2.50;1.67;;;17.70;63.30;18.50;99525.00;;;;5031031;28;20744;-53